PWSweather.com
Personal Weather Stations
Station Observations
BAYPARK
Bay Park, Ny, East Rockaway, NY 11518

Bay Park, NyEast Rockaway, NY 11518

Lat: 40.6310098, Lon: -73.6727287

Elevation: 11

Station Type: AcuRite Pro

https://www.awekas.at/en/instrument.php?id=14894

High Low Average
Temperature 71.0°F21.7°C 45.1°F7.3°C 57.9°F14.4°C
Dew Point 53.0°F11.7°C 41.8°F5.4°C 48.6°F9.2°C
Winds 3.6 mph 5.8 kmh Calm Calm 1.0 mph S1.6 kmh S
Wind Gusts 6.3 mph10.1 kmh -- 2.0 mph3.2 kmh
Humidity 97% 46% 73%
Pressure 30.41 in1029.8 mb 30.30 in1026.1 mb -
Precipitation 0.00 in0.0 mm - -
Hour Temp Dew Point Humidity Winds Wind Gusts Pressure Precip Precip Rate Daily Precip Total
12:00 AM 54.4°F12.4°C 43.4°F6.3°C 66% 0.3 mph S0.5 kmh S 1.7 mph2.7 kmh 30.36 in1028.1 mb 0.00 in0.0 mm 0.00 in0.0 mm 0.00 in0.0 mm
12:05 AM 54.1°F12.3°C 43.4°F6.3°C 67% 0.4 mph SW0.6 kmh SW 1.7 mph2.7 kmh 30.36 in1028.1 mb 0.00 in0.0 mm 0.00 in0.0 mm 0.00 in0.0 mm
12:10 AM 53.8°F12.1°C 43.1°F6.2°C 67% 0.1 mph SE0.2 kmh SE 1.1 mph1.8 kmh 30.36 in1028.1 mb 0.00 in0.0 mm 0.00 in0.0 mm 0.00 in0.0 mm
12:15 AM 53.5°F11.9°C 42.8°F6.0°C 67% 0.5 mph ENE0.8 kmh ENE 1.7 mph2.7 kmh 30.36 in1028.1 mb 0.00 in0.0 mm 0.00 in0.0 mm 0.00 in0.0 mm
12:20 AM 53.2°F11.8°C 42.6°F5.9°C 67% 0.5 mph SSE0.8 kmh SSE 1.7 mph2.7 kmh 30.36 in1028.1 mb 0.00 in0.0 mm 0.00 in0.0 mm 0.00 in0.0 mm
12:25 AM 53.2°F11.8°C 42.5°F5.8°C 67% 0.3 mph NNE0.5 kmh NNE 2.7 mph4.3 kmh 30.36 in1028.1 mb 0.00 in0.0 mm 0.00 in0.0 mm 0.00 in0.0 mm
12:30 AM 52.9°F11.6°C 42.4°F5.8°C 67% Calm Calm -- 30.36 in1028.1 mb 0.00 in0.0 mm 0.00 in0.0 mm 0.00 in0.0 mm
12:35 AM 52.5°F11.4°C 42.5°F5.8°C 68% 0.3 mph NE0.5 kmh NE 1.7 mph2.7 kmh 30.36 in1028.1 mb 0.00 in0.0 mm 0.00 in0.0 mm 0.00 in0.0 mm
12:40 AM 52.2°F11.2°C 42.4°F5.8°C 69% 0.1 mph N0.2 kmh N 1.1 mph1.8 kmh 30.36 in1028.1 mb 0.00 in0.0 mm 0.00 in0.0 mm 0.00 in0.0 mm
12:45 AM 52.0°F11.1°C 42.5°F5.8°C 70% Calm Calm -- 30.36 in1028.1 mb 0.00 in0.0 mm 0.00 in0.0 mm 0.00 in0.0 mm
12:50 AM 51.6°F10.9°C 42.2°F5.7°C 70% Calm Calm -- 30.36 in1028.1 mb 0.00 in0.0 mm 0.00 in0.0 mm 0.00 in0.0 mm
12:55 AM 51.3°F10.7°C 42.5°F5.8°C 72% Calm Calm -- 30.36 in1028.1 mb 0.00 in0.0 mm 0.00 in0.0 mm 0.00 in0.0 mm
01:00 AM 51.1°F10.6°C 42.4°F5.8°C 72% 0.2 mph ENE0.3 kmh ENE 1.7 mph2.7 kmh 30.36 in1028.1 mb 0.00 in0.0 mm 0.00 in0.0 mm 0.00 in0.0 mm
01:05 AM 50.9°F10.5°C 42.2°F5.7°C 72% Calm Calm -- 30.36 in1028.1 mb 0.00 in0.0 mm 0.00 in0.0 mm 0.00 in0.0 mm
01:10 AM 50.6°F10.3°C 42.1°F5.6°C 72% Calm Calm -- 30.36 in1028.1 mb 0.00 in0.0 mm 0.00 in0.0 mm 0.00 in0.0 mm
01:15 AM 50.5°F10.3°C 42.2°F5.7°C 73% Calm Calm -- 30.35 in1027.8 mb 0.00 in0.0 mm 0.00 in0.0 mm 0.00 in0.0 mm
01:20 AM 50.3°F10.2°C 42.3°F5.7°C 74% Calm Calm -- 30.35 in1027.8 mb 0.00 in0.0 mm 0.00 in0.0 mm 0.00 in0.0 mm
01:25 AM 50.1°F10.1°C 42.1°F5.6°C 74% Calm Calm -- 30.35 in1027.8 mb 0.00 in0.0 mm 0.00 in0.0 mm 0.00 in0.0 mm
01:30 AM 50.0°F10.0°C 42.1°F5.6°C 74% 0.1 mph W0.2 kmh W 1.1 mph1.8 kmh 30.35 in1027.8 mb 0.00 in0.0 mm 0.00 in0.0 mm 0.00 in0.0 mm
01:35 AM 50.0°F10.0°C 42.1°F5.6°C 74% 0.2 mph N0.3 kmh N 1.7 mph2.7 kmh 30.35 in1027.8 mb 0.00 in0.0 mm 0.00 in0.0 mm 0.00 in0.0 mm
01:40 AM 50.1°F10.1°C 42.1°F5.6°C 74% 0.3 mph E0.5 kmh E 1.7 mph2.7 kmh 30.36 in1028.1 mb 0.00 in0.0 mm 0.00 in0.0 mm 0.00 in0.0 mm
01:45 AM 50.2°F10.1°C 41.9°F5.5°C 73% 0.1 mph SSE0.2 kmh SSE 1.7 mph2.7 kmh 30.36 in1028.1 mb 0.00 in0.0 mm 0.00 in0.0 mm 0.00 in0.0 mm
01:50 AM 50.3°F10.2°C 42.0°F5.6°C 73% 0.1 mph NNE0.2 kmh NNE 2.2 mph3.5 kmh 30.35 in1027.8 mb 0.00 in0.0 mm 0.00 in0.0 mm 0.00 in0.0 mm
01:55 AM 50.2°F10.1°C 41.9°F5.5°C 73% Calm Calm -- 30.35 in1027.8 mb 0.00 in0.0 mm 0.00 in0.0 mm 0.00 in0.0 mm
02:00 AM 50.0°F10.0°C 42.0°F5.6°C 74% Calm Calm -- 30.35 in1027.8 mb 0.00 in0.0 mm 0.00 in0.0 mm 0.00 in0.0 mm
02:05 AM 49.7°F9.8°C 42.0°F5.6°C 75% Calm Calm -- 30.36 in1028.1 mb 0.00 in0.0 mm 0.00 in0.0 mm 0.00 in0.0 mm
02:10 AM 49.4°F9.7°C 41.9°F5.5°C 75% Calm Calm -- 30.36 in1028.1 mb 0.00 in0.0 mm 0.00 in0.0 mm 0.00 in0.0 mm
02:15 AM 49.2°F9.6°C 42.0°F5.6°C 76% Calm Calm -- 30.36 in1028.1 mb 0.00 in0.0 mm 0.00 in0.0 mm 0.00 in0.0 mm
02:20 AM 49.0°F9.4°C 42.0°F5.6°C 77% Calm Calm -- 30.36 in1028.1 mb 0.00 in0.0 mm 0.00 in0.0 mm 0.00 in0.0 mm
02:25 AM 48.7°F9.3°C 42.1°F5.6°C 78% Calm Calm -- 30.36 in1028.1 mb 0.00 in0.0 mm 0.00 in0.0 mm 0.00 in0.0 mm
02:30 AM 48.6°F9.2°C 42.1°F5.6°C 78% Calm Calm -- 30.36 in1028.1 mb 0.00 in0.0 mm 0.00 in0.0 mm 0.00 in0.0 mm
02:35 AM 48.3°F9.1°C 42.1°F5.6°C 79% Calm Calm -- 30.36 in1028.1 mb 0.00 in0.0 mm 0.00 in0.0 mm 0.00 in0.0 mm
02:40 AM 48.5°F9.2°C 42.3°F5.7°C 79% Calm Calm -- 30.36 in1028.1 mb 0.00 in0.0 mm 0.00 in0.0 mm 0.00 in0.0 mm
02:45 AM 48.5°F9.2°C 42.3°F5.7°C 79% Calm Calm -- 30.36 in1028.1 mb 0.00 in0.0 mm 0.00 in0.0 mm 0.00 in0.0 mm
02:50 AM 48.4°F9.1°C 42.2°F5.7°C 79% Calm Calm -- 30.36 in1028.1 mb 0.00 in0.0 mm 0.00 in0.0 mm 0.00 in0.0 mm
02:55 AM 48.1°F8.9°C 41.9°F5.5°C 79% Calm Calm -- 30.36 in1028.1 mb 0.00 in0.0 mm 0.00 in0.0 mm 0.00 in0.0 mm
03:00 AM 48.0°F8.9°C 41.8°F5.4°C 79% Calm Calm -- 30.36 in1028.1 mb 0.00 in0.0 mm 0.00 in0.0 mm 0.00 in0.0 mm
03:05 AM 47.8°F8.8°C 41.9°F5.5°C 80% Calm Calm -- 30.36 in1028.1 mb 0.00 in0.0 mm 0.00 in0.0 mm 0.00 in0.0 mm
03:10 AM 47.8°F8.8°C 41.9°F5.5°C 80% Calm Calm -- 30.36 in1028.1 mb 0.00 in0.0 mm 0.00 in0.0 mm 0.00 in0.0 mm
03:15 AM 47.7°F8.7°C 42.1°F5.6°C 81% Calm Calm -- 30.36 in1028.1 mb 0.00 in0.0 mm 0.00 in0.0 mm 0.00 in0.0 mm
03:20 AM 47.6°F8.7°C 42.1°F5.6°C 81% Calm Calm -- 30.36 in1028.1 mb 0.00 in0.0 mm 0.00 in0.0 mm 0.00 in0.0 mm
03:25 AM 47.7°F8.7°C 42.3°F5.7°C 81% Calm Calm -- 30.36 in1028.1 mb 0.00 in0.0 mm 0.00 in0.0 mm 0.00 in0.0 mm
03:30 AM 47.2°F8.4°C 42.2°F5.7°C 82% Calm Calm -- 30.35 in1027.8 mb 0.00 in0.0 mm 0.00 in0.0 mm 0.00 in0.0 mm
03:35 AM 47.0°F8.3°C 42.2°F5.7°C 83% Calm Calm -- 30.35 in1027.8 mb 0.00 in0.0 mm 0.00 in0.0 mm 0.00 in0.0 mm
03:40 AM 47.1°F8.4°C 42.5°F5.8°C 84% Calm Calm -- 30.35 in1027.8 mb 0.00 in0.0 mm 0.00 in0.0 mm 0.00 in0.0 mm
03:45 AM 47.1°F8.4°C 42.5°F5.8°C 84% Calm Calm -- 30.35 in1027.8 mb 0.00 in0.0 mm 0.00 in0.0 mm 0.00 in0.0 mm
03:50 AM 47.2°F8.4°C 42.5°F5.8°C 84% Calm Calm -- 30.35 in1027.8 mb 0.00 in0.0 mm 0.00 in0.0 mm 0.00 in0.0 mm
03:55 AM 47.1°F8.4°C 42.2°F5.7°C 83% Calm Calm -- 30.35 in1027.8 mb 0.00 in0.0 mm 0.00 in0.0 mm 0.00 in0.0 mm
04:00 AM 46.9°F8.3°C 42.2°F5.7°C 84% Calm Calm -- 30.35 in1027.8 mb 0.00 in0.0 mm 0.00 in0.0 mm 0.00 in0.0 mm
04:05 AM 46.7°F8.2°C 42.4°F5.8°C 85% Calm Calm -- 30.35 in1027.8 mb 0.00 in0.0 mm 0.00 in0.0 mm 0.00 in0.0 mm
04:10 AM 46.6°F8.1°C 42.3°F5.7°C 85% Calm Calm -- 30.35 in1027.8 mb 0.00 in0.0 mm 0.00 in0.0 mm 0.00 in0.0 mm
04:15 AM 46.5°F8.1°C 42.2°F5.7°C 85% Calm Calm -- 30.35 in1027.8 mb 0.00 in0.0 mm 0.00 in0.0 mm 0.00 in0.0 mm
04:20 AM 46.3°F7.9°C 42.3°F5.7°C 86% Calm Calm -- 30.35 in1027.8 mb 0.00 in0.0 mm 0.00 in0.0 mm 0.00 in0.0 mm
04:25 AM 46.0°F7.8°C 42.6°F5.9°C 88% Calm Calm -- 30.35 in1027.8 mb 0.00 in0.0 mm 0.00 in0.0 mm 0.00 in0.0 mm
04:30 AM 46.0°F7.8°C 42.6°F5.9°C 88% Calm Calm -- 30.35 in1027.8 mb 0.00 in0.0 mm 0.00 in0.0 mm 0.00 in0.0 mm
04:35 AM 46.2°F7.9°C 43.2°F6.2°C 89% Calm Calm -- 30.35 in1027.8 mb 0.00 in0.0 mm 0.00 in0.0 mm 0.00 in0.0 mm
04:40 AM 45.9°F7.7°C 42.9°F6.1°C 89% Calm Calm -- 30.36 in1028.1 mb 0.00 in0.0 mm 0.00 in0.0 mm 0.00 in0.0 mm
04:45 AM 45.7°F7.6°C 42.8°F6.0°C 90% Calm Calm -- 30.36 in1028.1 mb 0.00 in0.0 mm 0.00 in0.0 mm 0.00 in0.0 mm
04:50 AM 45.6°F7.6°C 42.8°F6.0°C 90% Calm Calm -- 30.36 in1028.1 mb 0.00 in0.0 mm 0.00 in0.0 mm 0.00 in0.0 mm
04:55 AM 45.1°F7.3°C 42.6°F5.9°C 91% Calm Calm -- 30.36 in1028.1 mb 0.00 in0.0 mm 0.00 in0.0 mm 0.00 in0.0 mm
05:00 AM 45.1°F7.3°C 42.6°F5.9°C 91% Calm Calm -- 30.36 in1028.1 mb 0.00 in0.0 mm 0.00 in0.0 mm 0.00 in0.0 mm
05:05 AM 45.1°F7.3°C 42.6°F5.9°C 91% Calm Calm -- 30.36 in1028.1 mb 0.00 in0.0 mm 0.00 in0.0 mm 0.00 in0.0 mm
05:10 AM 45.2°F7.3°C 42.9°F6.1°C 92% Calm Calm -- 30.36 in1028.1 mb 0.00 in0.0 mm 0.00 in0.0 mm 0.00 in0.0 mm
05:15 AM 45.4°F7.4°C 43.2°F6.2°C 92% Calm Calm -- 30.36 in1028.1 mb 0.00 in0.0 mm 0.00 in0.0 mm 0.00 in0.0 mm
05:20 AM 45.3°F7.4°C 43.1°F6.2°C 92% Calm Calm -- 30.36 in1028.1 mb 0.00 in0.0 mm 0.00 in0.0 mm 0.00 in0.0 mm
05:25 AM 45.3°F7.4°C 43.1°F6.2°C 92% Calm Calm -- 30.36 in1028.1 mb 0.00 in0.0 mm 0.00 in0.0 mm 0.00 in0.0 mm
05:30 AM 45.4°F7.4°C 43.5°F6.4°C 93% Calm Calm -- 30.36 in1028.1 mb 0.00 in0.0 mm 0.00 in0.0 mm 0.00 in0.0 mm
05:35 AM 45.5°F7.5°C 43.6°F6.4°C 93% Calm Calm -- 30.36 in1028.1 mb 0.00 in0.0 mm 0.00 in0.0 mm 0.00 in0.0 mm
05:40 AM 45.7°F7.6°C 43.8°F6.6°C 93% Calm Calm -- 30.37 in1028.4 mb 0.00 in0.0 mm 0.00 in0.0 mm 0.00 in0.0 mm
05:45 AM 45.7°F7.6°C 43.8°F6.6°C 93% Calm Calm -- 30.37 in1028.4 mb 0.00 in0.0 mm 0.00 in0.0 mm 0.00 in0.0 mm
05:50 AM 45.7°F7.6°C 43.8°F6.6°C 93% Calm Calm -- 30.37 in1028.4 mb 0.00 in0.0 mm 0.00 in0.0 mm 0.00 in0.0 mm
05:55 AM 45.6°F7.6°C 43.7°F6.5°C 93% Calm Calm -- 30.38 in1028.8 mb 0.00 in0.0 mm 0.00 in0.0 mm 0.00 in0.0 mm
06:00 AM 45.5°F7.5°C 43.7°F6.5°C 93% Calm Calm -- 30.38 in1028.8 mb 0.00 in0.0 mm 0.00 in0.0 mm 0.00 in0.0 mm
06:05 AM 45.5°F7.5°C 43.9°F6.6°C 94% Calm Calm -- 30.37 in1028.4 mb 0.00 in0.0 mm 0.00 in0.0 mm 0.00 in0.0 mm
06:10 AM 45.6°F7.6°C 44.3°F6.8°C 95% Calm Calm -- 30.37 in1028.4 mb 0.00 in0.0 mm 0.00 in0.0 mm 0.00 in0.0 mm
06:15 AM 45.9°F7.7°C 44.5°F6.9°C 95% Calm Calm -- 30.38 in1028.8 mb 0.00 in0.0 mm 0.00 in0.0 mm 0.00 in0.0 mm
06:20 AM 45.9°F7.7°C 44.5°F6.9°C 95% Calm Calm -- 30.38 in1028.8 mb 0.00 in0.0 mm 0.00 in0.0 mm 0.00 in0.0 mm
06:25 AM 45.9°F7.7°C 44.6°F7.0°C 95% Calm Calm -- 30.38 in1028.8 mb 0.00 in0.0 mm 0.00 in0.0 mm 0.00 in0.0 mm
06:30 AM 46.4°F8.0°C 45.0°F7.2°C 95% Calm Calm -- 30.38 in1028.8 mb 0.00 in0.0 mm 0.00 in0.0 mm 0.00 in0.0 mm
06:35 AM 46.4°F8.0°C 45.0°F7.2°C 95% Calm Calm -- 30.38 in1028.8 mb 0.00 in0.0 mm 0.00 in0.0 mm 0.00 in0.0 mm
06:40 AM 46.8°F8.2°C 45.4°F7.4°C 95% Calm Calm -- 30.38 in1028.8 mb 0.00 in0.0 mm 0.00 in0.0 mm 0.00 in0.0 mm
06:45 AM 47.6°F8.7°C 46.1°F7.8°C 95% Calm Calm -- 30.38 in1028.8 mb 0.00 in0.0 mm 0.00 in0.0 mm 0.00 in0.0 mm
06:50 AM 48.0°F8.9°C 46.4°F8.0°C 94% Calm Calm -- 30.38 in1028.8 mb 0.00 in0.0 mm 0.00 in0.0 mm 0.00 in0.0 mm
06:55 AM 48.2°F9.0°C 46.5°F8.1°C 94% Calm Calm -- 30.38 in1028.8 mb 0.00 in0.0 mm 0.00 in0.0 mm 0.00 in0.0 mm
07:00 AM 48.8°F9.3°C 46.8°F8.2°C 93% Calm Calm -- 30.38 in1028.8 mb 0.00 in0.0 mm 0.00 in0.0 mm 0.00 in0.0 mm
07:05 AM 49.7°F9.8°C 47.0°F8.3°C 90% 0.1 mph N0.2 kmh N 1.1 mph1.8 kmh 30.39 in1029.1 mb 0.00 in0.0 mm 0.00 in0.0 mm 0.00 in0.0 mm
07:10 AM 50.1°F10.1°C 47.3°F8.5°C 90% Calm Calm -- 30.39 in1029.1 mb 0.00 in0.0 mm 0.00 in0.0 mm 0.00 in0.0 mm
07:15 AM 50.8°F10.4°C 47.3°F8.5°C 88% 0.4 mph ESE0.6 kmh ESE 1.7 mph2.7 kmh 30.39 in1029.1 mb 0.00 in0.0 mm 0.00 in0.0 mm 0.00 in0.0 mm
07:20 AM 53.6°F12.0°C 47.6°F8.7°C 80% 0.8 mph E1.3 kmh E 2.7 mph4.3 kmh 30.39 in1029.1 mb 0.00 in0.0 mm 0.00 in0.0 mm 0.00 in0.0 mm
07:25 AM 55.3°F12.9°C 47.7°F8.7°C 76% 0.4 mph NNE0.6 kmh NNE 2.2 mph3.5 kmh 30.39 in1029.1 mb 0.00 in0.0 mm 0.00 in0.0 mm 0.00 in0.0 mm
07:30 AM 56.5°F13.6°C 48.0°F8.9°C 73% 1.0 mph NW1.6 kmh NW 2.7 mph4.3 kmh 30.39 in1029.1 mb 0.00 in0.0 mm 0.00 in0.0 mm 0.00 in0.0 mm
07:35 AM 56.7°F13.7°C 47.9°F8.8°C 72% 0.3 mph ESE0.5 kmh ESE 1.7 mph2.7 kmh 30.39 in1029.1 mb 0.00 in0.0 mm 0.00 in0.0 mm 0.00 in0.0 mm
07:40 AM 57.5°F14.2°C 48.4°F9.1°C 72% 0.1 mph SW0.2 kmh SW 1.7 mph2.7 kmh 30.39 in1029.1 mb 0.00 in0.0 mm 0.00 in0.0 mm 0.00 in0.0 mm
07:45 AM 58.2°F14.6°C 48.6°F9.2°C 70% 0.1 mph ESE0.2 kmh ESE 1.1 mph1.8 kmh 30.39 in1029.1 mb 0.00 in0.0 mm 0.00 in0.0 mm 0.00 in0.0 mm
07:50 AM 58.1°F14.5°C 48.4°F9.1°C 70% 0.3 mph NNE0.5 kmh NNE 2.2 mph3.5 kmh 30.39 in1029.1 mb 0.00 in0.0 mm 0.00 in0.0 mm 0.00 in0.0 mm
07:55 AM 58.1°F14.5°C 48.4°F9.1°C 70% 0.7 mph SE1.1 kmh SE 2.7 mph4.3 kmh 30.39 in1029.1 mb 0.00 in0.0 mm 0.00 in0.0 mm 0.00 in0.0 mm
08:00 AM 58.0°F14.4°C 48.2°F9.0°C 70% 0.4 mph ESE0.6 kmh ESE 1.7 mph2.7 kmh 30.39 in1029.1 mb 0.00 in0.0 mm 0.00 in0.0 mm 0.00 in0.0 mm
08:05 AM 57.9°F14.4°C 48.2°F9.0°C 70% 0.5 mph ENE0.8 kmh ENE 3.7 mph6.0 kmh 30.39 in1029.1 mb 0.00 in0.0 mm 0.00 in0.0 mm 0.00 in0.0 mm
08:10 AM 57.9°F14.4°C 48.2°F9.0°C 70% 0.9 mph E1.4 kmh E 2.2 mph3.5 kmh 30.39 in1029.1 mb 0.00 in0.0 mm 0.00 in0.0 mm 0.00 in0.0 mm
08:15 AM 58.0°F14.4°C 48.2°F9.0°C 70% 1.8 mph SSE2.9 kmh SSE 4.2 mph6.8 kmh 30.39 in1029.1 mb 0.00 in0.0 mm 0.00 in0.0 mm 0.00 in0.0 mm
08:20 AM 58.1°F14.5°C 48.2°F9.0°C 70% 1.2 mph ESE1.9 kmh ESE 4.2 mph6.8 kmh 30.40 in1029.5 mb 0.00 in0.0 mm 0.00 in0.0 mm 0.00 in0.0 mm
08:25 AM 58.5°F14.7°C 48.2°F9.0°C 69% 1.8 mph SE2.9 kmh SE 3.2 mph5.1 kmh 30.40 in1029.5 mb 0.00 in0.0 mm 0.00 in0.0 mm 0.00 in0.0 mm
08:30 AM 58.6°F14.8°C 47.9°F8.8°C 68% 1.0 mph ESE1.6 kmh ESE 3.2 mph5.1 kmh 30.40 in1029.5 mb 0.00 in0.0 mm 0.00 in0.0 mm 0.00 in0.0 mm
08:35 AM 59.2°F15.1°C 48.3°F9.1°C 67% 0.6 mph E1.0 kmh E 2.7 mph4.3 kmh 30.40 in1029.5 mb 0.00 in0.0 mm 0.00 in0.0 mm 0.00 in0.0 mm
08:40 AM 59.4°F15.2°C 48.3°F9.1°C 67% 1.1 mph NNE1.8 kmh NNE 2.7 mph4.3 kmh 30.40 in1029.5 mb 0.00 in0.0 mm 0.00 in0.0 mm 0.00 in0.0 mm
08:45 AM 59.5°F15.3°C 48.2°F9.0°C 66% 0.8 mph SSE1.3 kmh SSE 4.2 mph6.8 kmh 30.41 in1029.8 mb 0.00 in0.0 mm 0.00 in0.0 mm 0.00 in0.0 mm
08:50 AM 59.6°F15.3°C 48.2°F9.0°C 66% 1.1 mph N1.8 kmh N 2.7 mph4.3 kmh 30.41 in1029.8 mb 0.00 in0.0 mm 0.00 in0.0 mm 0.00 in0.0 mm
08:55 AM 59.6°F15.3°C 48.3°F9.1°C 66% 0.1 mph W0.2 kmh W 1.1 mph1.8 kmh 30.41 in1029.8 mb 0.00 in0.0 mm 0.00 in0.0 mm 0.00 in0.0 mm
09:00 AM 60.2°F15.7°C 48.4°F9.1°C 65% 1.2 mph NE1.9 kmh NE 3.7 mph6.0 kmh 30.41 in1029.8 mb 0.00 in0.0 mm 0.00 in0.0 mm 0.00 in0.0 mm
09:05 AM 60.3°F15.7°C 48.2°F9.0°C 64% 1.1 mph SE1.8 kmh SE 4.2 mph6.8 kmh 30.40 in1029.5 mb 0.00 in0.0 mm 0.00 in0.0 mm 0.00 in0.0 mm
09:10 AM 60.4°F15.8°C 48.4°F9.1°C 65% 1.7 mph SE2.7 kmh SE 3.2 mph5.1 kmh 30.40 in1029.5 mb 0.00 in0.0 mm 0.00 in0.0 mm 0.00 in0.0 mm
09:15 AM 61.0°F16.1°C 47.7°F8.7°C 62% 1.5 mph E2.4 kmh E 4.2 mph6.8 kmh 30.41 in1029.8 mb 0.00 in0.0 mm 0.00 in0.0 mm 0.00 in0.0 mm
09:20 AM 61.8°F16.6°C 47.9°F8.8°C 60% 0.7 mph ESE1.1 kmh ESE 2.7 mph4.3 kmh 30.41 in1029.8 mb 0.00 in0.0 mm 0.00 in0.0 mm 0.00 in0.0 mm
09:25 AM 62.9°F17.2°C 48.3°F9.1°C 59% 1.6 mph E2.6 kmh E 4.2 mph6.8 kmh 30.41 in1029.8 mb 0.00 in0.0 mm 0.00 in0.0 mm 0.00 in0.0 mm
09:30 AM 63.0°F17.2°C 48.5°F9.2°C 59% 1.3 mph E2.1 kmh E 2.7 mph4.3 kmh 30.40 in1029.5 mb 0.00 in0.0 mm 0.00 in0.0 mm 0.00 in0.0 mm
09:35 AM 64.0°F17.8°C 48.6°F9.2°C 57% 1.2 mph NE1.9 kmh NE 4.2 mph6.8 kmh 30.40 in1029.5 mb 0.00 in0.0 mm 0.00 in0.0 mm 0.00 in0.0 mm
09:40 AM 64.1°F17.8°C 47.8°F8.8°C 55% 1.6 mph SSE2.6 kmh SSE 3.7 mph6.0 kmh 30.40 in1029.5 mb 0.00 in0.0 mm 0.00 in0.0 mm 0.00 in0.0 mm
09:45 AM 64.6°F18.1°C 48.6°F9.2°C 56% 1.1 mph SE1.8 kmh SE 4.2 mph6.8 kmh 30.40 in1029.5 mb 0.00 in0.0 mm 0.00 in0.0 mm 0.00 in0.0 mm
09:50 AM 64.5°F18.1°C 48.3°F9.1°C 56% 1.1 mph SE1.8 kmh SE 2.7 mph4.3 kmh 30.40 in1029.5 mb 0.00 in0.0 mm 0.00 in0.0 mm 0.00 in0.0 mm
09:55 AM 65.3°F18.5°C 48.3°F9.1°C 54% 1.1 mph E1.8 kmh E 2.2 mph3.5 kmh 30.40 in1029.5 mb 0.00 in0.0 mm 0.00 in0.0 mm 0.00 in0.0 mm
10:00 AM 65.8°F18.8°C 49.0°F9.4°C 55% 1.2 mph S1.9 kmh S 2.7 mph4.3 kmh 30.40 in1029.5 mb 0.00 in0.0 mm 0.00 in0.0 mm 0.00 in0.0 mm
10:05 AM 65.9°F18.8°C 48.6°F9.2°C 54% 1.4 mph S2.3 kmh S 2.7 mph4.3 kmh 30.40 in1029.5 mb 0.00 in0.0 mm 0.00 in0.0 mm 0.00 in0.0 mm
10:10 AM 66.2°F19.0°C 48.3°F9.1°C 52% 0.9 mph SE1.4 kmh SE 2.7 mph4.3 kmh 30.40 in1029.5 mb 0.00 in0.0 mm 0.00 in0.0 mm 0.00 in0.0 mm
10:15 AM 66.4°F19.1°C 48.7°F9.3°C 53% 1.0 mph E1.6 kmh E 2.2 mph3.5 kmh 30.40 in1029.5 mb 0.00 in0.0 mm 0.00 in0.0 mm 0.00 in0.0 mm
10:20 AM 66.8°F19.3°C 48.9°F9.4°C 53% 1.0 mph S1.6 kmh S 4.2 mph6.8 kmh 30.40 in1029.5 mb 0.00 in0.0 mm 0.00 in0.0 mm 0.00 in0.0 mm
10:25 AM 67.4°F19.7°C 49.4°F9.7°C 52% 0.9 mph E1.4 kmh E 3.7 mph6.0 kmh 30.40 in1029.5 mb 0.00 in0.0 mm 0.00 in0.0 mm 0.00 in0.0 mm
10:30 AM 67.2°F19.6°C 49.0°F9.4°C 52% 1.7 mph E2.7 kmh E 3.7 mph6.0 kmh 30.40 in1029.5 mb 0.00 in0.0 mm 0.00 in0.0 mm 0.00 in0.0 mm
10:35 AM 67.8°F19.9°C 49.6°F9.8°C 52% 0.3 mph N0.5 kmh N 2.2 mph3.5 kmh 30.40 in1029.5 mb 0.00 in0.0 mm 0.00 in0.0 mm 0.00 in0.0 mm
10:40 AM 68.4°F20.2°C 49.8°F9.9°C 52% 1.7 mph E2.7 kmh E 3.2 mph5.1 kmh 30.39 in1029.1 mb 0.00 in0.0 mm 0.00 in0.0 mm 0.00 in0.0 mm
10:45 AM 67.5°F19.7°C 49.6°F9.8°C 53% 1.1 mph WSW1.8 kmh WSW 2.7 mph4.3 kmh 30.39 in1029.1 mb 0.00 in0.0 mm 0.00 in0.0 mm 0.00 in0.0 mm
10:50 AM 67.1°F19.5°C 49.6°F9.8°C 54% 1.2 mph SW1.9 kmh SW 2.2 mph3.5 kmh 30.39 in1029.1 mb 0.00 in0.0 mm 0.00 in0.0 mm 0.00 in0.0 mm
10:55 AM 67.9°F19.9°C 49.5°F9.7°C 52% 0.5 mph W0.8 kmh W 1.7 mph2.7 kmh 30.39 in1029.1 mb 0.00 in0.0 mm 0.00 in0.0 mm 0.00 in0.0 mm
11:00 AM 68.5°F20.3°C 48.8°F9.3°C 50% 1.3 mph SSE2.1 kmh SSE 2.7 mph4.3 kmh 30.39 in1029.1 mb 0.00 in0.0 mm 0.00 in0.0 mm 0.00 in0.0 mm
11:05 AM 68.8°F20.4°C 47.6°F8.7°C 47% 0.6 mph SSE1.0 kmh SSE 1.7 mph2.7 kmh 30.39 in1029.1 mb 0.00 in0.0 mm 0.00 in0.0 mm 0.00 in0.0 mm
11:10 AM 68.9°F20.5°C 48.3°F9.1°C 48% 0.1 mph ESE0.2 kmh ESE 1.1 mph1.8 kmh 30.39 in1029.1 mb 0.00 in0.0 mm 0.00 in0.0 mm 0.00 in0.0 mm
11:15 AM 68.9°F20.5°C 48.4°F9.1°C 48% 0.5 mph SW0.8 kmh SW 2.2 mph3.5 kmh 30.39 in1029.1 mb 0.00 in0.0 mm 0.00 in0.0 mm 0.00 in0.0 mm
11:20 AM 68.8°F20.4°C 49.1°F9.5°C 49% 1.2 mph SW1.9 kmh SW 2.7 mph4.3 kmh 30.39 in1029.1 mb 0.00 in0.0 mm 0.00 in0.0 mm 0.00 in0.0 mm
11:25 AM 69.8°F21.0°C 48.6°F9.2°C 47% 0.2 mph SE0.3 kmh SE 1.7 mph2.7 kmh 30.38 in1028.8 mb 0.00 in0.0 mm 0.00 in0.0 mm 0.00 in0.0 mm
11:30 AM 70.1°F21.2°C 48.5°F9.2°C 46% 1.0 mph SW1.6 kmh SW 2.7 mph4.3 kmh 30.38 in1028.8 mb 0.00 in0.0 mm 0.00 in0.0 mm 0.00 in0.0 mm
11:35 AM 69.6°F20.9°C 49.2°F9.6°C 48% 1.8 mph WSW2.9 kmh WSW 3.7 mph6.0 kmh 30.38 in1028.8 mb 0.00 in0.0 mm 0.00 in0.0 mm 0.00 in0.0 mm
11:40 AM 70.0°F21.1°C 48.3°F9.1°C 46% 0.8 mph SSW1.3 kmh SSW 3.7 mph6.0 kmh 30.38 in1028.8 mb 0.00 in0.0 mm 0.00 in0.0 mm 0.00 in0.0 mm
11:45 AM 70.2°F21.2°C 48.4°F9.1°C 46% 0.5 mph S0.8 kmh S 1.7 mph2.7 kmh 30.38 in1028.8 mb 0.00 in0.0 mm 0.00 in0.0 mm 0.00 in0.0 mm
11:50 AM 70.7°F21.5°C 49.3°F9.6°C 47% 0.7 mph ENE1.1 kmh ENE 1.7 mph2.7 kmh 30.37 in1028.4 mb 0.00 in0.0 mm 0.00 in0.0 mm 0.00 in0.0 mm
11:55 AM 71.0°F21.7°C 48.9°F9.4°C 46% 0.7 mph SE1.1 kmh SE 2.2 mph3.5 kmh 30.37 in1028.4 mb 0.00 in0.0 mm 0.00 in0.0 mm 0.00 in0.0 mm
12:00 PM 70.5°F21.4°C 50.2°F10.1°C 49% 1.8 mph SW2.9 kmh SW 3.2 mph5.1 kmh 30.37 in1028.4 mb 0.00 in0.0 mm 0.00 in0.0 mm 0.00 in0.0 mm
12:05 PM 70.1°F21.2°C 51.9°F11.1°C 53% 3.0 mph SW4.8 kmh SW 5.8 mph9.3 kmh 30.37 in1028.4 mb 0.00 in0.0 mm 0.00 in0.0 mm 0.00 in0.0 mm
12:10 PM 69.1°F20.6°C 52.1°F11.2°C 55% 2.6 mph SW4.2 kmh SW 3.7 mph6.0 kmh 30.37 in1028.4 mb 0.00 in0.0 mm 0.00 in0.0 mm 0.00 in0.0 mm
12:15 PM 68.7°F20.4°C 52.1°F11.2°C 55% 2.6 mph SW4.2 kmh SW 5.8 mph9.3 kmh 30.37 in1028.4 mb 0.00 in0.0 mm 0.00 in0.0 mm 0.00 in0.0 mm
12:20 PM 69.0°F20.6°C 52.4°F11.3°C 55% 2.3 mph SSW3.7 kmh SSW 4.2 mph6.8 kmh 30.37 in1028.4 mb 0.00 in0.0 mm 0.00 in0.0 mm 0.00 in0.0 mm
12:25 PM 69.1°F20.6°C 52.0°F11.1°C 54% 3.6 mph SW5.8 kmh SW 4.7 mph7.6 kmh 30.37 in1028.4 mb 0.00 in0.0 mm 0.00 in0.0 mm 0.00 in0.0 mm
12:30 PM 68.7°F20.4°C 51.8°F11.0°C 55% 3.4 mph SW5.5 kmh SW 6.3 mph10.1 kmh 30.36 in1028.1 mb 0.00 in0.0 mm 0.00 in0.0 mm 0.00 in0.0 mm
12:35 PM 68.5°F20.3°C 51.9°F11.1°C 55% 2.7 mph SW4.3 kmh SW 3.7 mph6.0 kmh 30.36 in1028.1 mb 0.00 in0.0 mm 0.00 in0.0 mm 0.00 in0.0 mm
12:40 PM 68.6°F20.3°C 52.4°F11.3°C 56% 2.3 mph SW3.7 kmh SW 3.7 mph6.0 kmh 30.36 in1028.1 mb 0.00 in0.0 mm 0.00 in0.0 mm 0.00 in0.0 mm
12:45 PM 69.2°F20.7°C 52.8°F11.6°C 56% 2.2 mph SW3.5 kmh SW 4.7 mph7.6 kmh 30.36 in1028.1 mb 0.00 in0.0 mm 0.00 in0.0 mm 0.00 in0.0 mm
12:50 PM 69.0°F20.6°C 52.0°F11.1°C 55% 2.8 mph SW4.5 kmh SW 5.3 mph8.5 kmh 30.36 in1028.1 mb 0.00 in0.0 mm 0.00 in0.0 mm 0.00 in0.0 mm
12:55 PM 69.3°F20.7°C 52.2°F11.2°C 55% 2.8 mph SSW4.5 kmh SSW 4.2 mph6.8 kmh 30.36 in1028.1 mb 0.00 in0.0 mm 0.00 in0.0 mm 0.00 in0.0 mm
01:00 PM 69.3°F20.7°C 52.2°F11.2°C 55% 2.5 mph SW4.0 kmh SW 4.7 mph7.6 kmh 30.36 in1028.1 mb 0.00 in0.0 mm 0.00 in0.0 mm 0.00 in0.0 mm
01:05 PM 69.1°F20.6°C 52.4°F11.3°C 55% 2.5 mph SW4.0 kmh SW 5.8 mph9.3 kmh 30.36 in1028.1 mb 0.00 in0.0 mm 0.00 in0.0 mm 0.00 in0.0 mm
01:10 PM 68.8°F20.4°C 52.0°F11.1°C 55% 2.8 mph SW4.5 kmh SW 5.3 mph8.5 kmh 30.36 in1028.1 mb 0.00 in0.0 mm 0.00 in0.0 mm 0.00 in0.0 mm
01:15 PM 69.1°F20.6°C 52.4°F11.3°C 55% 3.4 mph SW5.5 kmh SW 5.8 mph9.3 kmh 30.36 in1028.1 mb 0.00 in0.0 mm 0.00 in0.0 mm 0.00 in0.0 mm
01:20 PM 69.3°F20.7°C 52.5°F11.4°C 55% 2.0 mph WSW3.2 kmh WSW 3.2 mph5.1 kmh 30.36 in1028.1 mb 0.00 in0.0 mm 0.00 in0.0 mm 0.00 in0.0 mm
01:25 PM 68.4°F20.2°C 51.7°F10.9°C 55% 2.5 mph SW4.0 kmh SW 4.2 mph6.8 kmh 30.36 in1028.1 mb 0.00 in0.0 mm 0.00 in0.0 mm 0.00 in0.0 mm
01:30 PM 69.3°F20.7°C 52.1°F11.2°C 54% 1.1 mph SW1.8 kmh SW 3.2 mph5.1 kmh 30.36 in1028.1 mb 0.00 in0.0 mm 0.00 in0.0 mm 0.00 in0.0 mm
01:35 PM 69.2°F20.7°C 52.1°F11.2°C 54% 2.0 mph SW3.2 kmh SW 3.7 mph6.0 kmh 30.36 in1028.1 mb 0.00 in0.0 mm 0.00 in0.0 mm 0.00 in0.0 mm
01:40 PM 70.0°F21.1°C 52.8°F11.6°C 54% 1.4 mph SW2.3 kmh SW 5.8 mph9.3 kmh 30.36 in1028.1 mb 0.00 in0.0 mm 0.00 in0.0 mm 0.00 in0.0 mm
01:45 PM 70.0°F21.1°C 52.7°F11.5°C 54% 2.2 mph WSW3.5 kmh WSW 4.7 mph7.6 kmh 30.36 in1028.1 mb 0.00 in0.0 mm 0.00 in0.0 mm 0.00 in0.0 mm
01:50 PM 69.5°F20.8°C 52.7°F11.5°C 55% 2.6 mph SW4.2 kmh SW 5.3 mph8.5 kmh 30.36 in1028.1 mb 0.00 in0.0 mm 0.00 in0.0 mm 0.00 in0.0 mm
01:55 PM 69.1°F20.6°C 52.2°F11.2°C 55% 3.5 mph SW5.6 kmh SW 6.3 mph10.1 kmh 30.36 in1028.1 mb 0.00 in0.0 mm 0.00 in0.0 mm 0.00 in0.0 mm
02:00 PM 68.4°F20.2°C 51.8°F11.0°C 55% 3.0 mph W4.8 kmh W 4.7 mph7.6 kmh 30.36 in1028.1 mb 0.00 in0.0 mm 0.00 in0.0 mm 0.00 in0.0 mm
02:05 PM 68.5°F20.3°C 52.4°F11.3°C 57% 2.6 mph SW4.2 kmh SW 4.7 mph7.6 kmh 30.35 in1027.8 mb 0.00 in0.0 mm 0.00 in0.0 mm 0.00 in0.0 mm
02:10 PM 68.8°F20.4°C 52.4°F11.3°C 56% 2.1 mph SW3.4 kmh SW 6.3 mph10.1 kmh 30.35 in1027.8 mb 0.00 in0.0 mm 0.00 in0.0 mm 0.00 in0.0 mm
02:15 PM 69.2°F20.7°C 52.9°F11.6°C 56% 2.4 mph SW3.9 kmh SW 4.2 mph6.8 kmh 30.35 in1027.8 mb 0.00 in0.0 mm 0.00 in0.0 mm 0.00 in0.0 mm
02:20 PM 68.4°F20.2°C 52.1°F11.2°C 56% 2.3 mph SW3.7 kmh SW 4.2 mph6.8 kmh 30.35 in1027.8 mb 0.00 in0.0 mm 0.00 in0.0 mm 0.00 in0.0 mm
02:25 PM 68.5°F20.3°C 52.3°F11.3°C 56% 2.4 mph SW3.9 kmh SW 4.2 mph6.8 kmh 30.35 in1027.8 mb 0.00 in0.0 mm 0.00 in0.0 mm 0.00 in0.0 mm
02:30 PM 68.3°F20.2°C 52.1°F11.2°C 56% 2.3 mph WSW3.7 kmh WSW 5.3 mph8.5 kmh 30.35 in1027.8 mb 0.00 in0.0 mm 0.00 in0.0 mm 0.00 in0.0 mm
02:35 PM 68.4°F20.2°C 52.2°F11.2°C 56% 3.4 mph SW5.5 kmh SW 6.3 mph10.1 kmh 30.35 in1027.8 mb 0.00 in0.0 mm 0.00 in0.0 mm 0.00 in0.0 mm
02:40 PM 68.6°F20.3°C 52.4°F11.3°C 56% 1.6 mph WSW2.6 kmh WSW 3.2 mph5.1 kmh 30.35 in1027.8 mb 0.00 in0.0 mm 0.00 in0.0 mm 0.00 in0.0 mm
02:45 PM 68.1°F20.1°C 52.2°F11.2°C 57% 2.3 mph SW3.7 kmh SW 4.2 mph6.8 kmh 30.35 in1027.8 mb 0.00 in0.0 mm 0.00 in0.0 mm 0.00 in0.0 mm
02:50 PM 68.1°F20.1°C 52.5°F11.4°C 57% 1.4 mph WSW2.3 kmh WSW 2.7 mph4.3 kmh 30.35 in1027.8 mb 0.00 in0.0 mm 0.00 in0.0 mm 0.00 in0.0 mm
02:55 PM 67.8°F19.9°C 52.5°F11.4°C 58% 2.0 mph SW3.2 kmh SW 5.3 mph8.5 kmh 30.34 in1027.4 mb 0.00 in0.0 mm 0.00 in0.0 mm 0.00 in0.0 mm
03:00 PM 67.5°F19.7°C 52.4°F11.3°C 58% 2.2 mph SW3.5 kmh SW 4.2 mph6.8 kmh 30.34 in1027.4 mb 0.00 in0.0 mm 0.00 in0.0 mm 0.00 in0.0 mm
03:05 PM 68.0°F20.0°C 52.4°F11.3°C 58% 1.7 mph SSW2.7 kmh SSW 3.7 mph6.0 kmh 30.34 in1027.4 mb 0.00 in0.0 mm 0.00 in0.0 mm 0.00 in0.0 mm
03:10 PM 67.4°F19.7°C 52.5°F11.4°C 59% 1.9 mph SW3.1 kmh SW 4.2 mph6.8 kmh 30.34 in1027.4 mb 0.00 in0.0 mm 0.00 in0.0 mm 0.00 in0.0 mm
03:15 PM 67.1°F19.5°C 52.3°F11.3°C 59% 1.3 mph SW2.1 kmh SW 3.7 mph6.0 kmh 30.34 in1027.4 mb 0.00 in0.0 mm 0.00 in0.0 mm 0.00 in0.0 mm
03:20 PM 67.0°F19.4°C 51.9°F11.1°C 58% 1.8 mph SSW2.9 kmh SSW 3.7 mph6.0 kmh 30.34 in1027.4 mb 0.00 in0.0 mm 0.00 in0.0 mm 0.00 in0.0 mm
03:25 PM 66.5°F19.2°C 51.9°F11.1°C 60% 2.8 mph SW4.5 kmh SW 4.7 mph7.6 kmh 30.34 in1027.4 mb 0.00 in0.0 mm 0.00 in0.0 mm 0.00 in0.0 mm
03:30 PM 66.5°F19.2°C 52.3°F11.3°C 60% 1.9 mph SW3.1 kmh SW 3.7 mph6.0 kmh 30.34 in1027.4 mb 0.00 in0.0 mm 0.00 in0.0 mm 0.00 in0.0 mm
03:35 PM 66.4°F19.1°C 52.3°F11.3°C 60% 2.5 mph SW4.0 kmh SW 4.7 mph7.6 kmh 30.34 in1027.4 mb 0.00 in0.0 mm 0.00 in0.0 mm 0.00 in0.0 mm
03:40 PM 65.9°F18.8°C 51.7°F10.9°C 60% 1.4 mph WSW2.3 kmh WSW 4.2 mph6.8 kmh 30.34 in1027.4 mb 0.00 in0.0 mm 0.00 in0.0 mm 0.00 in0.0 mm
03:45 PM 66.3°F19.1°C 52.4°F11.3°C 61% 2.3 mph SW3.7 kmh SW 4.2 mph6.8 kmh 30.34 in1027.4 mb 0.00 in0.0 mm 0.00 in0.0 mm 0.00 in0.0 mm
03:50 PM 66.2°F19.0°C 52.5°F11.4°C 61% 2.1 mph SW3.4 kmh SW 4.2 mph6.8 kmh 30.34 in1027.4 mb 0.00 in0.0 mm 0.00 in0.0 mm 0.00 in0.0 mm
03:55 PM 66.2°F19.0°C 52.8°F11.6°C 62% 1.7 mph SW2.7 kmh SW 3.2 mph5.1 kmh 30.34 in1027.4 mb 0.00 in0.0 mm 0.00 in0.0 mm 0.00 in0.0 mm
04:00 PM 66.2°F19.0°C 52.4°F11.3°C 61% 1.8 mph WSW2.9 kmh WSW 4.2 mph6.8 kmh 30.34 in1027.4 mb 0.00 in0.0 mm 0.00 in0.0 mm 0.00 in0.0 mm
04:05 PM 65.9°F18.8°C 52.0°F11.1°C 61% 1.8 mph SW2.9 kmh SW 4.2 mph6.8 kmh 30.34 in1027.4 mb 0.00 in0.0 mm 0.00 in0.0 mm 0.00 in0.0 mm
04:10 PM 65.7°F18.7°C 51.9°F11.1°C 61% 2.4 mph SW3.9 kmh SW 4.7 mph7.6 kmh 30.34 in1027.4 mb 0.00 in0.0 mm 0.00 in0.0 mm 0.00 in0.0 mm
04:15 PM 65.6°F18.7°C 51.7°F10.9°C 61% 2.6 mph SSW4.2 kmh SSW 3.7 mph6.0 kmh 30.33 in1027.1 mb 0.00 in0.0 mm 0.00 in0.0 mm 0.00 in0.0 mm
04:20 PM 65.8°F18.8°C 51.5°F10.8°C 60% 1.9 mph S3.1 kmh S 4.7 mph7.6 kmh 30.33 in1027.1 mb 0.00 in0.0 mm 0.00 in0.0 mm 0.00 in0.0 mm
04:25 PM 65.5°F18.6°C 51.4°F10.8°C 60% 1.3 mph W2.1 kmh W 4.2 mph6.8 kmh 30.33 in1027.1 mb 0.00 in0.0 mm 0.00 in0.0 mm 0.00 in0.0 mm
04:30 PM 65.6°F18.7°C 51.8°F11.0°C 61% 1.4 mph WSW2.3 kmh WSW 3.7 mph6.0 kmh 30.33 in1027.1 mb 0.00 in0.0 mm 0.00 in0.0 mm 0.00 in0.0 mm
04:35 PM 66.0°F18.9°C 51.5°F10.8°C 60% 2.1 mph WSW3.4 kmh WSW 3.7 mph6.0 kmh 30.33 in1027.1 mb 0.00 in0.0 mm 0.00 in0.0 mm 0.00 in0.0 mm
04:40 PM 66.0°F18.9°C 51.7°F10.9°C 60% 0.8 mph SSW1.3 kmh SSW 4.2 mph6.8 kmh 30.33 in1027.1 mb 0.00 in0.0 mm 0.00 in0.0 mm 0.00 in0.0 mm
04:45 PM 65.8°F18.8°C 51.5°F10.8°C 60% 0.7 mph SW1.1 kmh SW 2.7 mph4.3 kmh 30.33 in1027.1 mb 0.00 in0.0 mm 0.00 in0.0 mm 0.00 in0.0 mm
04:50 PM 65.9°F18.8°C 51.6°F10.9°C 60% 1.5 mph SW2.4 kmh SW 3.7 mph6.0 kmh 30.34 in1027.4 mb 0.00 in0.0 mm 0.00 in0.0 mm 0.00 in0.0 mm
04:55 PM 65.9°F18.8°C 51.6°F10.9°C 60% 0.8 mph SSW1.3 kmh SSW 2.7 mph4.3 kmh 30.34 in1027.4 mb 0.00 in0.0 mm 0.00 in0.0 mm 0.00 in0.0 mm
05:00 PM 66.3°F19.1°C 51.9°F11.1°C 60% 0.8 mph SW1.3 kmh SW 2.7 mph4.3 kmh 30.34 in1027.4 mb 0.00 in0.0 mm 0.00 in0.0 mm 0.00 in0.0 mm
05:05 PM 67.0°F19.4°C 52.2°F11.2°C 59% 0.7 mph SW1.1 kmh SW 2.2 mph3.5 kmh 30.34 in1027.4 mb 0.00 in0.0 mm 0.00 in0.0 mm 0.00 in0.0 mm
05:10 PM 66.5°F19.2°C 51.7°F10.9°C 59% 0.8 mph SSW1.3 kmh SSW 2.7 mph4.3 kmh 30.34 in1027.4 mb 0.00 in0.0 mm 0.00 in0.0 mm 0.00 in0.0 mm
05:15 PM 66.3°F19.1°C 51.6°F10.9°C 59% 0.6 mph SSW1.0 kmh SSW 2.7 mph4.3 kmh 30.33 in1027.1 mb 0.00 in0.0 mm 0.00 in0.0 mm 0.00 in0.0 mm
05:20 PM 66.0°F18.9°C 51.4°F10.8°C 59% 1.0 mph SW1.6 kmh SW 2.7 mph4.3 kmh 30.33 in1027.1 mb 0.00 in0.0 mm 0.00 in0.0 mm 0.00 in0.0 mm
05:25 PM 65.5°F18.6°C 51.6°F10.9°C 61% 1.2 mph SW1.9 kmh SW 2.7 mph4.3 kmh 30.33 in1027.1 mb 0.00 in0.0 mm 0.00 in0.0 mm 0.00 in0.0 mm
05:30 PM 65.1°F18.4°C 51.8°F11.0°C 62% 0.8 mph SW1.3 kmh SW 3.7 mph6.0 kmh 30.33 in1027.1 mb 0.00 in0.0 mm 0.00 in0.0 mm 0.00 in0.0 mm
05:35 PM 64.8°F18.2°C 52.2°F11.2°C 64% 0.2 mph SSW0.3 kmh SSW 2.2 mph3.5 kmh 30.33 in1027.1 mb 0.00 in0.0 mm 0.00 in0.0 mm 0.00 in0.0 mm
05:40 PM 64.5°F18.1°C 52.5°F11.4°C 65% 0.1 mph SSW0.2 kmh SSW 2.2 mph3.5 kmh 30.33 in1027.1 mb 0.00 in0.0 mm 0.00 in0.0 mm 0.00 in0.0 mm
05:45 PM 64.1°F17.8°C 52.1°F11.2°C 65% 0.2 mph SW0.3 kmh SW 1.7 mph2.7 kmh 30.33 in1027.1 mb 0.00 in0.0 mm 0.00 in0.0 mm 0.00 in0.0 mm
05:50 PM 63.7°F17.6°C 52.0°F11.1°C 66% 0.1 mph N0.2 kmh N 1.1 mph1.8 kmh 30.33 in1027.1 mb 0.00 in0.0 mm 0.00 in0.0 mm 0.00 in0.0 mm
05:55 PM 63.2°F17.3°C 51.8°F11.0°C 66% 0.1 mph SW0.2 kmh SW 1.1 mph1.8 kmh 30.33 in1027.1 mb 0.00 in0.0 mm 0.00 in0.0 mm 0.00 in0.0 mm
06:00 PM 62.9°F17.2°C 51.8°F11.0°C 67% 0.3 mph S0.5 kmh S 2.2 mph3.5 kmh 30.33 in1027.1 mb 0.00 in0.0 mm 0.00 in0.0 mm 0.00 in0.0 mm
06:05 PM 62.5°F16.9°C 51.9°F11.1°C 68% 0.4 mph SW0.6 kmh SW 2.2 mph3.5 kmh 30.33 in1027.1 mb 0.00 in0.0 mm 0.00 in0.0 mm 0.00 in0.0 mm
06:10 PM 62.2°F16.8°C 52.1°F11.2°C 69% Calm Calm -- 30.33 in1027.1 mb 0.00 in0.0 mm 0.00 in0.0 mm 0.00 in0.0 mm
06:15 PM 61.9°F16.6°C 52.5°F11.4°C 71% Calm Calm -- 30.33 in1027.1 mb 0.00 in0.0 mm 0.00 in0.0 mm 0.00 in0.0 mm
06:20 PM 61.4°F16.3°C 52.4°F11.3°C 72% Calm Calm -- 30.33 in1027.1 mb 0.00 in0.0 mm 0.00 in0.0 mm 0.00 in0.0 mm
06:25 PM 61.1°F16.2°C 52.3°F11.3°C 73% Calm Calm -- 30.33 in1027.1 mb 0.00 in0.0 mm 0.00 in0.0 mm 0.00 in0.0 mm
06:30 PM 60.7°F15.9°C 52.2°F11.2°C 74% Calm Calm -- 30.33 in1027.1 mb 0.00 in0.0 mm 0.00 in0.0 mm 0.00 in0.0 mm
06:35 PM 60.3°F15.7°C 52.4°F11.3°C 75% Calm Calm -- 30.33 in1027.1 mb 0.00 in0.0 mm 0.00 in0.0 mm 0.00 in0.0 mm
06:40 PM 60.0°F15.6°C 52.4°F11.3°C 76% Calm Calm -- 30.33 in1027.1 mb 0.00 in0.0 mm 0.00 in0.0 mm 0.00 in0.0 mm
06:45 PM 59.5°F15.3°C 52.2°F11.2°C 76% Calm Calm -- 30.33 in1027.1 mb 0.00 in0.0 mm 0.00 in0.0 mm 0.00 in0.0 mm
06:50 PM 59.4°F15.2°C 52.3°F11.3°C 77% Calm Calm -- 30.33 in1027.1 mb 0.00 in0.0 mm 0.00 in0.0 mm 0.00 in0.0 mm
06:55 PM 59.0°F15.0°C 51.9°F11.1°C 77% Calm Calm -- 30.33 in1027.1 mb 0.00 in0.0 mm 0.00 in0.0 mm 0.00 in0.0 mm
07:00 PM 58.6°F14.8°C 51.9°F11.1°C 78% Calm Calm -- 30.33 in1027.1 mb 0.00 in0.0 mm 0.00 in0.0 mm 0.00 in0.0 mm
07:05 PM 58.3°F14.6°C 52.3°F11.3°C 81% Calm Calm -- 30.33 in1027.1 mb 0.00 in0.0 mm 0.00 in0.0 mm 0.00 in0.0 mm
07:10 PM 57.8°F14.3°C 52.3°F11.3°C 82% Calm Calm -- 30.33 in1027.1 mb 0.00 in0.0 mm 0.00 in0.0 mm 0.00 in0.0 mm
07:15 PM 57.6°F14.2°C 52.4°F11.3°C 83% Calm Calm -- 30.33 in1027.1 mb 0.00 in0.0 mm 0.00 in0.0 mm 0.00 in0.0 mm
07:20 PM 57.6°F14.2°C 52.3°F11.3°C 83% Calm Calm -- 30.33 in1027.1 mb 0.00 in0.0 mm 0.00 in0.0 mm 0.00 in0.0 mm
07:25 PM 57.5°F14.2°C 52.2°F11.2°C 82% Calm Calm -- 30.33 in1027.1 mb 0.00 in0.0 mm 0.00 in0.0 mm 0.00 in0.0 mm
07:30 PM 57.3°F14.1°C 52.2°F11.2°C 83% Calm Calm -- 30.33 in1027.1 mb 0.00 in0.0 mm 0.00 in0.0 mm 0.00 in0.0 mm
07:35 PM 57.0°F13.9°C 52.3°F11.3°C 84% Calm Calm -- 30.33 in1027.1 mb 0.00 in0.0 mm 0.00 in0.0 mm 0.00 in0.0 mm
07:40 PM 56.8°F13.8°C 52.5°F11.4°C 86% Calm Calm -- 30.33 in1027.1 mb 0.00 in0.0 mm 0.00 in0.0 mm 0.00 in0.0 mm
07:45 PM 56.7°F13.7°C 52.6°F11.4°C 86% Calm Calm -- 30.33 in1027.1 mb 0.00 in0.0 mm 0.00 in0.0 mm 0.00 in0.0 mm
07:50 PM 56.4°F13.6°C 52.3°F11.3°C 86% Calm Calm -- 30.32 in1026.8 mb 0.00 in0.0 mm 0.00 in0.0 mm 0.00 in0.0 mm
07:55 PM 56.3°F13.5°C 52.1°F11.2°C 86% Calm Calm -- 30.32 in1026.8 mb 0.00 in0.0 mm 0.00 in0.0 mm 0.00 in0.0 mm
08:00 PM 55.9°F13.3°C 52.1°F11.2°C 87% Calm Calm -- 30.32 in1026.8 mb 0.00 in0.0 mm 0.00 in0.0 mm 0.00 in0.0 mm
08:05 PM 55.8°F13.2°C 52.1°F11.2°C 87% Calm Calm -- 30.32 in1026.8 mb 0.00 in0.0 mm 0.00 in0.0 mm 0.00 in0.0 mm
08:10 PM 55.7°F13.2°C 51.9°F11.1°C 87% Calm Calm -- 30.32 in1026.8 mb 0.00 in0.0 mm 0.00 in0.0 mm 0.00 in0.0 mm
08:15 PM 55.4°F13.0°C 51.9°F11.1°C 88% Calm Calm -- 30.32 in1026.8 mb 0.00 in0.0 mm 0.00 in0.0 mm 0.00 in0.0 mm
08:20 PM 55.2°F12.9°C 52.0°F11.1°C 89% Calm Calm -- 30.32 in1026.8 mb 0.00 in0.0 mm 0.00 in0.0 mm 0.00 in0.0 mm
08:25 PM 55.2°F12.9°C 52.0°F11.1°C 89% Calm Calm -- 30.32 in1026.8 mb 0.00 in0.0 mm 0.00 in0.0 mm 0.00 in0.0 mm
08:30 PM 55.0°F12.8°C 52.1°F11.2°C 90% Calm Calm -- 30.32 in1026.8 mb 0.00 in0.0 mm 0.00 in0.0 mm 0.00 in0.0 mm
08:35 PM 55.2°F12.9°C 52.4°F11.3°C 90% 0.1 mph N0.2 kmh N 1.1 mph1.8 kmh 30.32 in1026.8 mb 0.00 in0.0 mm 0.00 in0.0 mm 0.00 in0.0 mm
08:40 PM 55.4°F13.0°C 52.2°F11.2°C 89% 0.1 mph N0.2 kmh N 1.1 mph1.8 kmh 30.32 in1026.8 mb 0.00 in0.0 mm 0.00 in0.0 mm 0.00 in0.0 mm
08:45 PM 55.2°F12.9°C 52.3°F11.3°C 90% Calm Calm -- 30.32 in1026.8 mb 0.00 in0.0 mm 0.00 in0.0 mm 0.00 in0.0 mm
08:50 PM 55.0°F12.8°C 52.4°F11.3°C 91% Calm Calm -- 30.32 in1026.8 mb 0.00 in0.0 mm 0.00 in0.0 mm 0.00 in0.0 mm
08:55 PM 55.2°F12.9°C 52.5°F11.4°C 91% Calm Calm -- 30.32 in1026.8 mb 0.00 in0.0 mm 0.00 in0.0 mm 0.00 in0.0 mm
09:00 PM 55.0°F12.8°C 52.4°F11.3°C 91% Calm Calm -- 30.32 in1026.8 mb 0.00 in0.0 mm 0.00 in0.0 mm 0.00 in0.0 mm
09:05 PM 55.0°F12.8°C 52.4°F11.3°C 91% Calm Calm -- 30.32 in1026.8 mb 0.00 in0.0 mm 0.00 in0.0 mm 0.00 in0.0 mm
09:10 PM 55.0°F12.8°C 52.4°F11.3°C 91% Calm Calm -- 30.32 in1026.8 mb 0.00 in0.0 mm 0.00 in0.0 mm 0.00 in0.0 mm
09:15 PM 54.9°F12.7°C 52.3°F11.3°C 91% Calm Calm -- 30.32 in1026.8 mb 0.00 in0.0 mm 0.00 in0.0 mm 0.00 in0.0 mm
09:20 PM 54.8°F12.7°C 52.2°F11.2°C 91% Calm Calm -- 30.32 in1026.8 mb 0.00 in0.0 mm 0.00 in0.0 mm 0.00 in0.0 mm
09:25 PM 54.6°F12.6°C 52.0°F11.1°C 91% Calm Calm -- 30.32 in1026.8 mb 0.00 in0.0 mm 0.00 in0.0 mm 0.00 in0.0 mm
09:30 PM 54.4°F12.4°C 52.0°F11.1°C 92% Calm Calm -- 30.31 in1026.4 mb 0.00 in0.0 mm 0.00 in0.0 mm 0.00 in0.0 mm
09:35 PM 54.3°F12.4°C 52.0°F11.1°C 92% Calm Calm -- 30.31 in1026.4 mb 0.00 in0.0 mm 0.00 in0.0 mm 0.00 in0.0 mm
09:40 PM 54.1°F12.3°C 51.8°F11.0°C 92% Calm Calm -- 30.31 in1026.4 mb 0.00 in0.0 mm 0.00 in0.0 mm 0.00 in0.0 mm
09:45 PM 54.1°F12.3°C 51.8°F11.0°C 92% Calm Calm -- 30.31 in1026.4 mb 0.00 in0.0 mm 0.00 in0.0 mm 0.00 in0.0 mm
09:50 PM 54.0°F12.2°C 52.2°F11.2°C 93% Calm Calm -- 30.31 in1026.4 mb 0.00 in0.0 mm 0.00 in0.0 mm 0.00 in0.0 mm
09:55 PM 54.0°F12.2°C 52.3°F11.3°C 94% Calm Calm -- 30.31 in1026.4 mb 0.00 in0.0 mm 0.00 in0.0 mm 0.00 in0.0 mm
10:00 PM 54.0°F12.2°C 52.3°F11.3°C 94% Calm Calm -- 30.31 in1026.4 mb 0.00 in0.0 mm 0.00 in0.0 mm 0.00 in0.0 mm
10:05 PM 54.0°F12.2°C 52.3°F11.3°C 94% Calm Calm -- 30.31 in1026.4 mb 0.00 in0.0 mm 0.00 in0.0 mm 0.00 in0.0 mm
10:10 PM 53.8°F12.1°C 52.1°F11.2°C 94% Calm Calm -- 30.31 in1026.4 mb 0.00 in0.0 mm 0.00 in0.0 mm 0.00 in0.0 mm
10:15 PM 53.6°F12.0°C 51.9°F11.1°C 94% Calm Calm -- 30.31 in1026.4 mb 0.00 in0.0 mm 0.00 in0.0 mm 0.00 in0.0 mm
10:20 PM 53.6°F12.0°C 51.9°F11.1°C 94% Calm Calm -- 30.31 in1026.4 mb 0.00 in0.0 mm 0.00 in0.0 mm 0.00 in0.0 mm
10:25 PM 53.6°F12.0°C 51.9°F11.1°C 94% Calm Calm -- 30.31 in1026.4 mb 0.00 in0.0 mm 0.00 in0.0 mm 0.00 in0.0 mm
10:30 PM 53.3°F11.8°C 51.7°F10.9°C 94% Calm Calm -- 30.31 in1026.4 mb 0.00 in0.0 mm 0.00 in0.0 mm 0.00 in0.0 mm
10:35 PM 53.2°F11.8°C 51.5°F10.8°C 94% Calm Calm -- 30.31 in1026.4 mb 0.00 in0.0 mm 0.00 in0.0 mm 0.00 in0.0 mm
10:40 PM 53.1°F11.7°C 51.4°F10.8°C 94% Calm Calm -- 30.31 in1026.4 mb 0.00 in0.0 mm 0.00 in0.0 mm 0.00 in0.0 mm
10:45 PM 53.1°F11.7°C 51.4°F10.8°C 94% Calm Calm -- 30.31 in1026.4 mb 0.00 in0.0 mm 0.00 in0.0 mm 0.00 in0.0 mm
10:50 PM 53.1°F11.7°C 51.4°F10.8°C 94% Calm Calm -- 30.31 in1026.4 mb 0.00 in0.0 mm 0.00 in0.0 mm 0.00 in0.0 mm
10:55 PM 53.1°F11.7°C 51.4°F10.8°C 94% Calm Calm -- 30.31 in1026.4 mb 0.00 in0.0 mm 0.00 in0.0 mm 0.00 in0.0 mm
11:00 PM 53.1°F11.7°C 51.4°F10.8°C 94% Calm Calm -- 30.31 in1026.4 mb 0.00 in0.0 mm 0.00 in0.0 mm 0.00 in0.0 mm
11:05 PM 53.1°F11.7°C 51.4°F10.8°C 94% Calm Calm -- 30.31 in1026.4 mb 0.00 in0.0 mm 0.00 in0.0 mm 0.00 in0.0 mm
11:10 PM 53.0°F11.7°C 51.6°F10.9°C 95% Calm Calm -- 30.31 in1026.4 mb 0.00 in0.0 mm 0.00 in0.0 mm 0.00 in0.0 mm
11:15 PM 53.1°F11.7°C 51.7°F10.9°C 95% Calm Calm -- 30.31 in1026.4 mb 0.00 in0.0 mm 0.00 in0.0 mm 0.00 in0.0 mm
11:20 PM 53.1°F11.7°C 51.7°F10.9°C 95% Calm Calm -- 30.31 in1026.4 mb 0.00 in0.0 mm 0.00 in0.0 mm 0.00 in0.0 mm
11:25 PM 53.1°F11.7°C 51.9°F11.1°C 96% Calm Calm -- 30.31 in1026.4 mb 0.00 in0.0 mm 0.00 in0.0 mm 0.00 in0.0 mm
11:30 PM 53.2°F11.8°C 52.1°F11.2°C 96% Calm Calm -- 30.31 in1026.4 mb 0.00 in0.0 mm 0.00 in0.0 mm 0.00 in0.0 mm
11:35 PM 53.2°F11.8°C 52.1°F11.2°C 96% Calm Calm -- 30.31 in1026.4 mb 0.00 in0.0 mm 0.00 in0.0 mm 0.00 in0.0 mm
11:40 PM 53.2°F11.8°C 52.1°F11.2°C 96% Calm Calm -- 30.31 in1026.4 mb 0.00 in0.0 mm 0.00 in0.0 mm 0.00 in0.0 mm
11:45 PM 53.4°F11.9°C 52.4°F11.3°C 97% Calm Calm -- 30.31 in1026.4 mb 0.00 in0.0 mm 0.00 in0.0 mm 0.00 in0.0 mm
11:50 PM 53.7°F12.1°C 52.9°F11.6°C 97% Calm Calm -- 30.30 in1026.1 mb 0.00 in0.0 mm 0.00 in0.0 mm 0.00 in0.0 mm
11:55 PM 53.8°F12.1°C 53.0°F11.7°C 97% 0.1 mph SW0.2 kmh SW 1.1 mph1.8 kmh 30.30 in1026.1 mb 0.00 in0.0 mm 0.00 in0.0 mm 0.00 in0.0 mm